sensor_id;sensor_type;location;lat;lon;timestamp;P1;durP1;ratioP1;P2;durP2;ratioP2
75285;SDS011;63879;46.064;14.532;2023-05-07T06:01:03;5.82;;;3.28;;
75285;SDS011;63879;46.064;14.532;2023-05-07T06:03:28;5.93;;;5.32;;
75285;SDS011;63879;46.064;14.532;2023-05-07T06:05:53;5.18;;;4.57;;
75285;SDS011;63879;46.064;14.532;2023-05-07T06:08:19;4.50;;;3.73;;
75285;SDS011;63879;46.064;14.532;2023-05-07T06:10:44;5.05;;;3.88;;
75285;SDS011;63879;46.064;14.532;2023-05-07T06:13:10;5.60;;;4.28;;
75285;SDS011;63879;46.064;14.532;2023-05-07T06:15:36;5.32;;;3.58;;
75285;SDS011;63879;46.064;14.532;2023-05-07T06:18:01;6.10;;;3.67;;
75285;SDS011;63879;46.064;14.532;2023-05-07T06:20:27;7.50;;;4.03;;
75285;SDS011;63879;46.064;14.532;2023-05-07T06:22:52;5.17;;;3.60;;
75285;SDS011;63879;46.064;14.532;2023-05-07T06:25:17;6.17;;;3.57;;
75285;SDS011;63879;46.064;14.532;2023-05-07T06:27:43;5.37;;;3.50;;
75285;SDS011;63879;46.064;14.532;2023-05-07T06:30:08;3.13;;;2.83;;
75285;SDS011;63879;46.064;14.532;2023-05-07T06:32:34;5.88;;;4.00;;
75285;SDS011;63879;46.064;14.532;2023-05-07T06:35:00;5.03;;;3.28;;
75285;SDS011;63879;46.064;14.532;2023-05-07T06:37:25;5.97;;;4.77;;
75285;SDS011;63879;46.064;14.532;2023-05-07T06:39:50;5.43;;;3.72;;
75285;SDS011;63879;46.064;14.532;2023-05-07T06:42:16;6.97;;;4.47;;
75285;SDS011;63879;46.064;14.532;2023-05-07T06:44:41;10.00;;;6.82;;
75285;SDS011;63879;46.064;14.532;2023-05-07T06:47:06;15.68;;;9.25;;
75285;SDS011;63879;46.064;14.532;2023-05-07T06:49:32;9.10;;;6.33;;
75285;SDS011;63879;46.064;14.532;2023-05-07T06:51:58;7.57;;;6.25;;
75285;SDS011;63879;46.064;14.532;2023-05-07T06:54:23;8.80;;;5.90;;
75285;SDS011;63879;46.064;14.532;2023-05-07T06:56:49;8.55;;;6.32;;
75285;SDS011;63879;46.064;14.532;2023-05-07T06:59:14;8.48;;;5.32;;
75285;SDS011;63879;46.064;14.532;2023-05-07T07:01:40;8.25;;;5.43;;
75285;SDS011;63879;46.064;14.532;2023-05-07T07:04:05;7.53;;;5.05;;
75285;SDS011;63879;46.064;14.532;2023-05-07T07:06:30;6.50;;;5.72;;
75285;SDS011;63879;46.064;14.532;2023-05-07T07:08:57;7.10;;;5.22;;
75285;SDS011;63879;46.064;14.532;2023-05-07T07:11:22;7.50;;;4.57;;
75285;SDS011;63879;46.064;14.532;2023-05-07T07:13:48;6.90;;;4.70;;
75285;SDS011;63879;46.064;14.532;2023-05-07T07:16:13;5.93;;;3.57;;
75285;SDS011;63879;46.064;14.532;2023-05-07T07:18:38;5.82;;;4.65;;
75285;SDS011;63879;46.064;14.532;2023-05-07T07:21:04;5.05;;;3.88;;
75285;SDS011;63879;46.064;14.532;2023-05-07T07:23:30;8.68;;;4.38;;
75285;SDS011;63879;46.064;14.532;2023-05-07T07:25:55;6.72;;;3.80;;
75285;SDS011;63879;46.064;14.532;2023-05-07T07:28:21;4.53;;;3.60;;
75285;SDS011;63879;46.064;14.532;2023-05-07T07:30:47;5.50;;;3.58;;
75285;SDS011;63879;46.064;14.532;2023-05-07T07:33:12;4.65;;;3.67;;
75285;SDS011;63879;46.064;14.532;2023-05-07T07:35:38;5.70;;;3.05;;
75285;SDS011;63879;46.064;14.532;2023-05-07T07:38:03;4.27;;;3.20;;
75285;SDS011;63879;46.064;14.532;2023-05-07T07:40:28;4.43;;;3.53;;
75285;SDS011;63879;46.064;14.532;2023-05-07T07:42:54;4.10;;;3.38;;
75285;SDS011;63879;46.064;14.532;2023-05-07T07:45:20;5.60;;;3.53;;
75285;SDS011;63879;46.064;14.532;2023-05-07T07:47:45;6.03;;;3.67;;
75285;SDS011;63879;46.064;14.532;2023-05-07T07:50:11;4.75;;;3.35;;
75285;SDS011;63879;46.064;14.532;2023-05-07T07:52:37;3.97;;;2.85;;
75285;SDS011;63879;46.064;14.532;2023-05-07T07:55:03;6.40;;;2.85;;
75285;SDS011;63879;46.064;14.532;2023-05-07T07:57:29;4.30;;;2.70;;
75285;SDS011;63879;46.064;14.532;2023-05-07T07:59:55;4.22;;;3.20;;
75285;SDS011;63879;46.064;14.532;2023-05-07T08:02:20;5.63;;;3.73;;
75285;SDS011;63879;46.064;14.532;2023-05-07T08:04:45;4.00;;;3.28;;
75285;SDS011;63879;46.064;14.532;2023-05-07T08:07:11;4.97;;;3.07;;
75285;SDS011;63879;46.064;14.532;2023-05-07T08:09:36;4.75;;;2.78;;
75285;SDS011;63879;46.064;14.532;2023-05-07T08:12:02;4.82;;;3.42;;
75285;SDS011;63879;46.064;14.532;2023-05-07T08:14:28;3.70;;;2.47;;
75285;SDS011;63879;46.064;14.532;2023-05-07T08:16:54;3.88;;;3.15;;
75285;SDS011;63879;46.064;14.532;2023-05-07T08:19:20;4.70;;;3.08;;
75285;SDS011;63879;46.064;14.532;2023-05-07T08:21:46;4.00;;;2.92;;
75285;SDS011;63879;46.064;14.532;2023-05-07T08:24:12;3.78;;;3.00;;
75285;SDS011;63879;46.064;14.532;2023-05-07T08:26:41;4.00;;;3.53;;
75285;SDS011;63879;46.064;14.532;2023-05-07T08:29:06;4.53;;;2.75;;
75285;SDS011;63879;46.064;14.532;2023-05-07T08:31:32;4.03;;;3.05;;
75285;SDS011;63879;46.064;14.532;2023-05-07T08:33:57;4.90;;;3.00;;
75285;SDS011;63879;46.064;14.532;2023-05-07T08:36:23;5.43;;;2.83;;
75285;SDS011;63879;46.064;14.532;2023-05-07T08:38:51;4.50;;;2.88;;
75285;SDS011;63879;46.064;14.532;2023-05-07T08:41:18;3.47;;;2.38;;
75285;SDS011;63879;46.064;14.532;2023-05-07T08:43:47;4.72;;;3.33;;
75285;SDS011;63879;46.064;14.532;2023-05-07T08:46:17;4.20;;;2.15;;
75285;SDS011;63879;46.064;14.532;2023-05-07T08:48:44;4.10;;;3.35;;
75285;SDS011;63879;46.064;14.532;2023-05-07T08:51:13;4.00;;;2.45;;
75285;SDS011;63879;46.064;14.532;2023-05-07T08:53:41;4.00;;;2.53;;
75285;SDS011;63879;46.064;14.532;2023-05-07T08:56:07;3.22;;;2.45;;
75285;SDS011;63879;46.064;14.532;2023-05-07T08:58:33;3.08;;;2.55;;
75285;SDS011;63879;46.064;14.532;2023-05-07T09:00:59;3.15;;;2.85;;
75285;SDS011;63879;46.064;14.532;2023-05-07T09:03:31;3.05;;;2.42;;
75285;SDS011;63879;46.064;14.532;2023-05-07T09:05:57;2.63;;;2.30;;
75285;SDS011;63879;46.064;14.532;2023-05-07T09:08:24;3.53;;;2.23;;
75285;SDS011;63879;46.064;14.532;2023-05-07T09:10:51;3.03;;;2.08;;
75285;SDS011;63879;46.064;14.532;2023-05-07T09:13:17;4.43;;;4.03;;
75285;SDS011;63879;46.064;14.532;2023-05-07T09:15:43;3.15;;;2.70;;
75285;SDS011;63879;46.064;14.532;2023-05-07T09:18:08;4.38;;;4.07;;
75285;SDS011;63879;46.064;14.532;2023-05-07T09:20:33;4.93;;;2.80;;
75285;SDS011;63879;46.064;14.532;2023-05-07T09:23:01;3.33;;;2.95;;
75285;SDS011;63879;46.064;14.532;2023-05-07T09:25:28;2.88;;;2.40;;
75285;SDS011;63879;46.064;14.532;2023-05-07T09:27:54;2.53;;;2.20;;
75285;SDS011;63879;46.064;14.532;2023-05-07T09:30:19;3.47;;;3.17;;
75285;SDS011;63879;46.064;14.532;2023-05-07T09:32:45;3.25;;;2.92;;
75285;SDS011;63879;46.064;14.532;2023-05-07T09:35:15;3.17;;;2.67;;
75285;SDS011;63879;46.064;14.532;2023-05-07T09:37:41;3.63;;;3.30;;
75285;SDS011;63879;46.064;14.532;2023-05-07T09:40:07;4.25;;;3.85;;
75285;SDS011;63879;46.064;14.532;2023-05-07T09:42:34;3.38;;;3.08;;
75285;SDS011;63879;46.064;14.532;2023-05-07T09:44:59;3.45;;;2.45;;
75285;SDS011;63879;46.064;14.532;2023-05-07T09:47:25;4.35;;;3.03;;
75285;SDS011;63879;46.064;14.532;2023-05-07T09:49:57;3.63;;;3.08;;
75285;SDS011;63879;46.064;14.532;2023-05-07T09:52:24;3.53;;;3.25;;
75285;SDS011;63879;46.064;14.532;2023-05-07T09:54:53;3.17;;;2.47;;
75285;SDS011;63879;46.064;14.532;2023-05-07T09:57:20;4.03;;;3.72;;
75285;SDS011;63879;46.064;14.532;2023-05-07T09:59:45;2.88;;;2.67;;
75285;SDS011;63879;46.064;14.532;2023-05-07T10:02:12;3.85;;;2.45;;
75285;SDS011;63879;46.064;14.532;2023-05-07T10:07:05;3.08;;;2.40;;
75285;SDS011;63879;46.064;14.532;2023-05-07T10:09:30;2.25;;;2.05;;
75285;SDS011;63879;46.064;14.532;2023-05-07T10:11:56;3.05;;;2.05;;
75285;SDS011;63879;46.064;14.532;2023-05-07T10:14:22;2.28;;;2.08;;
75285;SDS011;63879;46.064;14.532;2023-05-07T10:16:48;2.60;;;2.40;;
75285;SDS011;63879;46.064;14.532;2023-05-07T10:19:14;3.03;;;2.47;;
75285;SDS011;63879;46.064;14.532;2023-05-07T10:21:47;2.25;;;2.05;;
75285;SDS011;63879;46.064;14.532;2023-05-07T10:24:19;2.65;;;1.92;;
75285;SDS011;63879;46.064;14.532;2023-05-07T10:26:47;3.13;;;2.28;;
75285;SDS011;63879;46.064;14.532;2023-05-07T10:34:44;4.65;;;2.60;;
75285;SDS011;63879;46.064;14.532;2023-05-07T10:37:11;2.80;;;2.33;;
75285;SDS011;63879;46.064;14.532;2023-05-07T10:39:37;2.63;;;2.25;;
75285;SDS011;63879;46.064;14.532;2023-05-07T10:42:13;2.67;;;2.47;;
75285;SDS011;63879;46.064;14.532;2023-05-07T10:44:39;2.40;;;2.20;;
75285;SDS011;63879;46.064;14.532;2023-05-07T10:47:11;3.47;;;2.97;;
75285;SDS011;63879;46.064;14.532;2023-05-07T10:52:16;2.25;;;1.70;;
75285;SDS011;63879;46.064;14.532;2023-05-07T10:54:43;4.38;;;2.42;;
75285;SDS011;63879;46.064;14.532;2023-05-07T10:59:56;3.17;;;2.05;;
75285;SDS011;63879;46.064;14.532;2023-05-07T11:02:21;2.77;;;2.53;;
75285;SDS011;63879;46.064;14.532;2023-05-07T11:05:18;2.70;;;2.35;;
75285;SDS011;63879;46.064;14.532;2023-05-07T11:07:57;2.65;;;2.45;;
75285;SDS011;63879;46.064;14.532;2023-05-07T11:10:23;2.20;;;2.00;;
75285;SDS011;63879;46.064;14.532;2023-05-07T11:13:15;2.53;;;1.63;;
75285;SDS011;63879;46.064;14.532;2023-05-07T11:15:42;2.78;;;2.40;;
75285;SDS011;63879;46.064;14.532;2023-05-07T11:18:09;3.60;;;2.83;;
75285;SDS011;63879;46.064;14.532;2023-05-07T11:20:52;2.30;;;2.08;;
75285;SDS011;63879;46.064;14.532;2023-05-07T11:26:00;3.20;;;2.60;;
75285;SDS011;63879;46.064;14.532;2023-05-07T11:28:27;3.47;;;2.25;;
75285;SDS011;63879;46.064;14.532;2023-05-07T11:30:53;2.92;;;2.70;;
75285;SDS011;63879;46.064;14.532;2023-05-07T11:33:19;2.15;;;1.95;;
75285;SDS011;63879;46.064;14.532;2023-05-07T11:35:44;2.03;;;1.90;;
75285;SDS011;63879;46.064;14.532;2023-05-07T11:38:10;2.92;;;2.72;;
75285;SDS011;63879;46.064;14.532;2023-05-07T11:40:48;2.47;;;2.28;;
75285;SDS011;63879;46.064;14.532;2023-05-07T11:43:17;3.92;;;1.67;;
75285;SDS011;63879;46.064;14.532;2023-05-07T11:45:42;2.45;;;1.65;;
75285;SDS011;63879;46.064;14.532;2023-05-07T11:48:09;3.25;;;1.88;;
75285;SDS011;63879;46.064;14.532;2023-05-07T11:50:34;2.83;;;2.63;;
75285;SDS011;63879;46.064;14.532;2023-05-07T11:53:00;5.03;;;2.57;;
75285;SDS011;63879;46.064;14.532;2023-05-07T11:55:25;2.20;;;1.90;;
75285;SDS011;63879;46.064;14.532;2023-05-07T11:57:51;2.47;;;2.28;;
75285;SDS011;63879;46.064;14.532;2023-05-07T12:00:16;3.17;;;2.67;;
75285;SDS011;63879;46.064;14.532;2023-05-07T12:02:43;2.08;;;1.80;;
75285;SDS011;63879;46.064;14.532;2023-05-07T12:05:10;2.80;;;2.60;;
75285;SDS011;63879;46.064;14.532;2023-05-07T12:07:35;3.33;;;2.92;;
75285;SDS011;63879;46.064;14.532;2023-05-07T12:10:07;2.42;;;2.03;;
75285;SDS011;63879;46.064;14.532;2023-05-07T12:12:39;3.38;;;2.67;;
75285;SDS011;63879;46.064;14.532;2023-05-07T12:15:06;2.67;;;2.42;;
75285;SDS011;63879;46.064;14.532;2023-05-07T12:17:32;2.95;;;2.72;;
75285;SDS011;63879;46.064;14.532;2023-05-07T12:19:58;2.70;;;1.88;;
75285;SDS011;63879;46.064;14.532;2023-05-07T12:22:23;2.17;;;1.97;;
75285;SDS011;63879;46.064;14.532;2023-05-07T12:24:49;2.35;;;1.90;;
75285;SDS011;63879;46.064;14.532;2023-05-07T12:27:21;2.22;;;1.98;;
75285;SDS011;63879;46.064;14.532;2023-05-07T12:29:47;2.25;;;2.05;;
75285;SDS011;63879;46.064;14.532;2023-05-07T12:32:17;2.47;;;2.20;;
75285;SDS011;63879;46.064;14.532;2023-05-07T12:34:44;2.00;;;1.80;;
75285;SDS011;63879;46.064;14.532;2023-05-07T12:37:10;2.25;;;2.05;;
75285;SDS011;63879;46.064;14.532;2023-05-07T12:39:35;4.18;;;2.97;;
75285;SDS011;63879;46.064;14.532;2023-05-07T12:42:01;3.28;;;2.05;;
75285;SDS011;63879;46.064;14.532;2023-05-07T12:44:31;2.33;;;2.13;;
75285;SDS011;63879;46.064;14.532;2023-05-07T12:46:57;3.67;;;2.80;;
75285;SDS011;63879;46.064;14.532;2023-05-07T12:49:23;3.50;;;3.20;;
75285;SDS011;63879;46.064;14.532;2023-05-07T12:51:49;2.15;;;1.75;;
75285;SDS011;63879;46.064;14.532;2023-05-07T12:54:31;2.35;;;2.15;;
75285;SDS011;63879;46.064;14.532;2023-05-07T12:57:15;2.25;;;2.05;;
75285;SDS011;63879;46.064;14.532;2023-05-07T12:59:44;2.47;;;2.28;;
75285;SDS011;63879;46.064;14.532;2023-05-07T13:02:09;2.50;;;2.40;;
75285;SDS011;63879;46.064;14.532;2023-05-07T13:04:35;1.90;;;1.67;;
75285;SDS011;63879;46.064;14.532;2023-05-07T13:07:01;2.28;;;2.08;;
75285;SDS011;63879;46.064;14.532;2023-05-07T13:09:27;2.17;;;1.98;;
75285;SDS011;63879;46.064;14.532;2023-05-07T13:11:54;4.35;;;1.90;;
75285;SDS011;63879;46.064;14.532;2023-05-07T13:14:19;2.03;;;1.52;;
75285;SDS011;63879;46.064;14.532;2023-05-07T13:16:45;2.15;;;2.05;;
75285;SDS011;63879;46.064;14.532;2023-05-07T13:19:11;3.03;;;1.77;;
75285;SDS011;63879;46.064;14.532;2023-05-07T13:21:37;2.87;;;2.43;;
75285;SDS011;63879;46.064;14.532;2023-05-07T13:24:02;2.67;;;2.23;;
75285;SDS011;63879;46.064;14.532;2023-05-07T13:26:29;2.03;;;1.83;;
75285;SDS011;63879;46.064;14.532;2023-05-07T13:28:56;2.80;;;2.28;;
75285;SDS011;63879;46.064;14.532;2023-05-07T13:31:22;2.35;;;2.15;;
75285;SDS011;63879;46.064;14.532;2023-05-07T13:33:47;2.75;;;2.55;;
75285;SDS011;63879;46.064;14.532;2023-05-07T13:36:13;2.93;;;2.27;;
75285;SDS011;63879;46.064;14.532;2023-05-07T13:38:39;2.60;;;2.40;;
75285;SDS011;63879;46.064;14.532;2023-05-07T13:41:04;2.90;;;2.63;;
75285;SDS011;63879;46.064;14.532;2023-05-07T13:43:30;3.13;;;2.83;;
75285;SDS011;63879;46.064;14.532;2023-05-07T13:45:56;2.67;;;2.47;;
75285;SDS011;63879;46.064;14.532;2023-05-07T13:48:22;4.38;;;2.30;;
75285;SDS011;63879;46.064;14.532;2023-05-07T13:50:47;2.53;;;2.15;;
75285;SDS011;63879;46.064;14.532;2023-05-07T13:53:13;2.30;;;2.10;;
75285;SDS011;63879;46.064;14.532;2023-05-07T13:55:40;2.75;;;2.00;;
75285;SDS011;63879;46.064;14.532;2023-05-07T13:58:05;2.43;;;1.67;;
75285;SDS011;63879;46.064;14.532;2023-05-07T14:00:31;2.53;;;2.27;;
75285;SDS011;63879;46.064;14.532;2023-05-07T14:02:56;2.53;;;1.98;;
75285;SDS011;63879;46.064;14.532;2023-05-07T14:05:22;2.83;;;2.47;;
75285;SDS011;63879;46.064;14.532;2023-05-07T14:07:48;2.55;;;1.98;;
75285;SDS011;63879;46.064;14.532;2023-05-07T14:10:16;3.40;;;2.08;;
75285;SDS011;63879;46.064;14.532;2023-05-07T14:12:43;3.17;;;2.92;;
75285;SDS011;63879;46.064;14.532;2023-05-07T14:15:09;2.38;;;2.17;;
75285;SDS011;63879;46.064;14.532;2023-05-07T14:17:35;2.35;;;2.15;;
75285;SDS011;63879;46.064;14.532;2023-05-07T14:20:00;2.30;;;1.92;;
75285;SDS011;63879;46.064;14.532;2023-05-07T14:22:26;2.47;;;2.27;;
75285;SDS011;63879;46.064;14.532;2023-05-07T14:24:51;2.50;;;2.20;;
75285;SDS011;63879;46.064;14.532;2023-05-07T14:27:16;3.05;;;2.83;;
75285;SDS011;63879;46.064;14.532;2023-05-07T14:29:42;3.25;;;3.05;;
75285;SDS011;63879;46.064;14.532;2023-05-07T14:32:08;3.85;;;2.78;;
75285;SDS011;63879;46.064;14.532;2023-05-07T14:34:33;2.85;;;2.63;;
75285;SDS011;63879;46.064;14.532;2023-05-07T14:36:59;3.50;;;2.03;;
75285;SDS011;63879;46.064;14.532;2023-05-07T14:39:25;3.65;;;3.35;;
75285;SDS011;63879;46.064;14.532;2023-05-07T14:41:51;3.15;;;2.53;;
75285;SDS011;63879;46.064;14.532;2023-05-07T14:44:19;3.67;;;3.15;;
75285;SDS011;63879;46.064;14.532;2023-05-07T14:46:45;4.85;;;2.72;;
75285;SDS011;63879;46.064;14.532;2023-05-07T14:49:10;3.00;;;2.80;;
75285;SDS011;63879;46.064;14.532;2023-05-07T14:51:41;3.20;;;2.90;;
75285;SDS011;63879;46.064;14.532;2023-05-07T14:54:10;3.42;;;3.10;;
75285;SDS011;63879;46.064;14.532;2023-05-07T14:56:36;4.10;;;2.15;;
75285;SDS011;63879;46.064;14.532;2023-05-07T14:59:02;3.10;;;2.80;;
75285;SDS011;63879;46.064;14.532;2023-05-07T15:01:27;3.42;;;2.88;;
75285;SDS011;63879;46.064;14.532;2023-05-07T15:03:53;3.67;;;3.38;;
75285;SDS011;63879;46.064;14.532;2023-05-07T15:06:19;3.35;;;2.55;;
75285;SDS011;63879;46.064;14.532;2023-05-07T15:08:45;3.50;;;3.20;;
75285;SDS011;63879;46.064;14.532;2023-05-07T15:11:10;3.60;;;3.15;;
75285;SDS011;63879;46.064;14.532;2023-05-07T15:13:36;3.40;;;3.10;;
75285;SDS011;63879;46.064;14.532;2023-05-07T15:16:01;3.33;;;2.55;;
75285;SDS011;63879;46.064;14.532;2023-05-07T15:18:26;2.37;;;1.77;;
75285;SDS011;63879;46.064;14.532;2023-05-07T15:20:52;3.00;;;2.40;;
75285;SDS011;63879;46.064;14.532;2023-05-07T15:23:17;4.40;;;4.00;;
75285;SDS011;63879;46.064;14.532;2023-05-07T15:25:42;4.75;;;3.08;;
75285;SDS011;63879;46.064;14.532;2023-05-07T15:28:08;2.63;;;2.27;;
75285;SDS011;63879;46.064;14.532;2023-05-07T15:30:33;3.00;;;2.70;;
75285;SDS011;63879;46.064;14.532;2023-05-07T15:33:01;3.50;;;3.03;;
75285;SDS011;63879;46.064;14.532;2023-05-07T15:35:26;3.30;;;2.70;;
75285;SDS011;63879;46.064;14.532;2023-05-07T15:37:52;2.53;;;2.33;;
75285;SDS011;63879;46.064;14.532;2023-05-07T15:40:18;3.20;;;2.90;;
75285;SDS011;63879;46.064;14.532;2023-05-07T15:42:44;2.90;;;2.70;;
75285;SDS011;63879;46.064;14.532;2023-05-07T15:45:10;2.95;;;2.67;;
75285;SDS011;63879;46.064;14.532;2023-05-07T15:47:35;4.88;;;2.97;;
75285;SDS011;63879;46.064;14.532;2023-05-07T15:50:01;3.83;;;3.47;;
75285;SDS011;63879;46.064;14.532;2023-05-07T15:52:27;5.93;;;3.05;;
75285;SDS011;63879;46.064;14.532;2023-05-07T15:54:53;3.15;;;2.72;;
75285;SDS011;63879;46.064;14.532;2023-05-07T15:57:19;3.63;;;3.30;;
75285;SDS011;63879;46.064;14.532;2023-05-07T15:59:45;3.97;;;3.65;;
75285;SDS011;63879;46.064;14.532;2023-05-07T16:02:10;4.67;;;3.23;;
75285;SDS011;63879;46.064;14.532;2023-05-07T16:04:36;4.75;;;4.43;;
75285;SDS011;63879;46.064;14.532;2023-05-07T16:07:01;3.83;;;3.03;;
75285;SDS011;63879;46.064;14.532;2023-05-07T16:09:27;3.67;;;3.17;;
75285;SDS011;63879;46.064;14.532;2023-05-07T16:11:53;3.72;;;2.60;;
75285;SDS011;63879;46.064;14.532;2023-05-07T16:14:18;4.57;;;2.97;;
75285;SDS011;63879;46.064;14.532;2023-05-07T16:16:44;2.83;;;2.25;;
75285;SDS011;63879;46.064;14.532;2023-05-07T16:19:09;3.50;;;3.05;;
75285;SDS011;63879;46.064;14.532;2023-05-07T16:21:34;4.33;;;3.73;;
75285;SDS011;63879;46.064;14.532;2023-05-07T16:24:00;5.40;;;3.10;;
75285;SDS011;63879;46.064;14.532;2023-05-07T16:26:25;3.08;;;2.47;;
75285;SDS011;63879;46.064;14.532;2023-05-07T16:28:51;4.47;;;3.03;;
75285;SDS011;63879;46.064;14.532;2023-05-07T16:31:16;3.53;;;3.23;;
75285;SDS011;63879;46.064;14.532;2023-05-07T16:33:42;3.53;;;2.45;;
75285;SDS011;63879;46.064;14.532;2023-05-07T16:36:08;3.00;;;2.78;;
75285;SDS011;63879;46.064;14.532;2023-05-07T16:38:33;2.60;;;2.40;;
75285;SDS011;63879;46.064;14.532;2023-05-07T16:40:59;4.27;;;2.23;;
75285;SDS011;63879;46.064;14.532;2023-05-07T16:43:25;3.65;;;2.63;;
75285;SDS011;63879;46.064;14.532;2023-05-07T16:45:51;2.20;;;1.83;;
75285;SDS011;63879;46.064;14.532;2023-05-07T16:48:17;3.22;;;2.55;;
75285;SDS011;63879;46.064;14.532;2023-05-07T16:50:42;2.78;;;2.25;;
75285;SDS011;63879;46.064;14.532;2023-05-07T16:53:08;2.95;;;2.65;;
75285;SDS011;63879;46.064;14.532;2023-05-07T16:55:37;3.28;;;2.97;;
75285;SDS011;63879;46.064;14.532;2023-05-07T16:58:06;3.20;;;2.90;;
75285;SDS011;63879;46.064;14.532;2023-05-07T17:00:33;3.88;;;3.47;;
75285;SDS011;63879;46.064;14.532;2023-05-07T17:02:59;4.45;;;3.42;;
75285;SDS011;63879;46.064;14.532;2023-05-07T17:05:24;3.33;;;2.80;;
75285;SDS011;63879;46.064;14.532;2023-05-07T17:07:50;3.30;;;2.95;;
75285;SDS011;63879;46.064;14.532;2023-05-07T17:10:15;3.30;;;2.60;;
75285;SDS011;63879;46.064;14.532;2023-05-07T17:12:41;3.38;;;2.30;;
75285;SDS011;63879;46.064;14.532;2023-05-07T17:15:07;2.40;;;2.13;;
75285;SDS011;63879;46.064;14.532;2023-05-07T17:17:32;2.92;;;2.60;;
75285;SDS011;63879;46.064;14.532;2023-05-07T17:19:58;2.33;;;1.95;;
75285;SDS011;63879;46.064;14.532;2023-05-07T17:22:24;2.53;;;2.33;;
75285;SDS011;63879;46.064;14.532;2023-05-07T17:24:50;2.70;;;2.50;;
75285;SDS011;63879;46.064;14.532;2023-05-07T17:27:15;2.88;;;2.33;;
75285;SDS011;63879;46.064;14.532;2023-05-07T17:29:40;3.38;;;2.78;;
75285;SDS011;63879;46.064;14.532;2023-05-07T17:32:06;3.27;;;2.97;;
75285;SDS011;63879;46.064;14.532;2023-05-07T17:34:31;3.33;;;3.08;;
75285;SDS011;63879;46.064;14.532;2023-05-07T17:36:56;6.28;;;4.00;;
75285;SDS011;63879;46.064;14.532;2023-05-07T17:39:22;3.65;;;3.08;;
75285;SDS011;63879;46.064;14.532;2023-05-07T17:41:48;3.70;;;2.97;;
75285;SDS011;63879;46.064;14.532;2023-05-07T17:44:13;4.07;;;2.80;;
75285;SDS011;63879;46.064;14.532;2023-05-07T17:49:14;4.07;;;3.47;;
75285;SDS011;63879;46.064;14.532;2023-05-07T17:51:40;6.32;;;2.92;;
75285;SDS011;63879;46.064;14.532;2023-05-07T17:54:06;3.38;;;2.78;;
75285;SDS011;63879;46.064;14.532;2023-05-07T17:56:36;3.67;;;3.38;;
75285;SDS011;63879;46.064;14.532;2023-05-07T17:59:02;3.15;;;2.83;;
75285;SDS011;63879;46.064;14.532;2023-05-07T18:01:27;5.20;;;2.13;;
75285;SDS011;63879;46.064;14.532;2023-05-07T18:03:52;3.42;;;3.03;;
75285;SDS011;63879;46.064;14.532;2023-05-07T18:06:18;3.70;;;2.85;;
75285;SDS011;63879;46.064;14.532;2023-05-07T18:08:45;4.43;;;2.85;;
75285;SDS011;63879;46.064;14.532;2023-05-07T18:11:11;3.20;;;2.90;;
75285;SDS011;63879;46.064;14.532;2023-05-07T18:13:36;3.65;;;3.33;;
75285;SDS011;63879;46.064;14.532;2023-05-07T18:16:02;2.75;;;2.35;;
75285;SDS011;63879;46.064;14.532;2023-05-07T18:18:28;3.78;;;3.33;;
75285;SDS011;63879;46.064;14.532;2023-05-07T18:20:57;4.82;;;3.42;;
75285;SDS011;63879;46.064;14.532;2023-05-07T18:23:23;4.72;;;3.38;;
75285;SDS011;63879;46.064;14.532;2023-05-07T18:25:49;3.25;;;2.85;;
75285;SDS011;63879;46.064;14.532;2023-05-07T18:28:15;5.85;;;3.42;;
75285;SDS011;63879;46.064;14.532;2023-05-07T18:30:40;3.40;;;3.03;;
75285;SDS011;63879;46.064;14.532;2023-05-07T18:33:06;3.75;;;3.17;;
75285;SDS011;63879;46.064;14.532;2023-05-07T18:35:35;5.65;;;5.25;;
75285;SDS011;63879;46.064;14.532;2023-05-07T18:38:00;3.50;;;2.95;;
75285;SDS011;63879;46.064;14.532;2023-05-07T18:40:32;3.70;;;3.35;;
75285;SDS011;63879;46.064;14.532;2023-05-07T18:42:57;3.42;;;3.13;;
75285;SDS011;63879;46.064;14.532;2023-05-07T18:45:24;5.55;;;3.17;;
75285;SDS011;63879;46.064;14.532;2023-05-07T18:47:50;4.15;;;3.75;;
75285;SDS011;63879;46.064;14.532;2023-05-07T18:50:15;4.50;;;2.57;;
75285;SDS011;63879;46.064;14.532;2023-05-07T18:52:41;3.38;;;2.83;;
75285;SDS011;63879;46.064;14.532;2023-05-07T18:55:06;3.45;;;2.88;;
75285;SDS011;63879;46.064;14.532;2023-05-07T18:57:32;3.53;;;3.22;;
75285;SDS011;63879;46.064;14.532;2023-05-07T18:59:57;3.10;;;2.75;;
75285;SDS011;63879;46.064;14.532;2023-05-07T19:02:23;11.73;;;2.97;;
75285;SDS011;63879;46.064;14.532;2023-05-07T19:04:48;4.07;;;2.95;;
75285;SDS011;63879;46.064;14.532;2023-05-07T19:07:14;4.78;;;2.88;;
75285;SDS011;63879;46.064;14.532;2023-05-07T19:09:40;5.18;;;2.17;;
75285;SDS011;63879;46.064;14.532;2023-05-07T19:12:05;2.83;;;2.03;;
75285;SDS011;63879;46.064;14.532;2023-05-07T19:14:31;2.60;;;2.13;;
75285;SDS011;63879;46.064;14.532;2023-05-07T19:16:57;3.05;;;2.67;;
75285;SDS011;63879;46.064;14.532;2023-05-07T19:19:22;3.20;;;1.90;;
75285;SDS011;63879;46.064;14.532;2023-05-07T19:21:53;3.58;;;3.28;;
75285;SDS011;63879;46.064;14.532;2023-05-07T19:24:18;2.50;;;2.13;;
75285;SDS011;63879;46.064;14.532;2023-05-07T19:26:43;2.50;;;2.30;;
75285;SDS011;63879;46.064;14.532;2023-05-07T19:29:09;4.78;;;2.95;;
75285;SDS011;63879;46.064;14.532;2023-05-07T19:31:35;3.95;;;2.60;;
75285;SDS011;63879;46.064;14.532;2023-05-07T19:34:00;3.13;;;2.10;;
75285;SDS011;63879;46.064;14.532;2023-05-07T19:36:26;3.30;;;2.00;;
75285;SDS011;63879;46.064;14.532;2023-05-07T19:38:51;2.53;;;2.07;;
75285;SDS011;63879;46.064;14.532;2023-05-07T19:41:19;2.33;;;2.10;;
75285;SDS011;63879;46.064;14.532;2023-05-07T19:43:46;3.53;;;2.38;;
75285;SDS011;63879;46.064;14.532;2023-05-07T19:46:12;2.25;;;1.45;;
75285;SDS011;63879;46.064;14.532;2023-05-07T19:48:40;2.97;;;1.98;;
75285;SDS011;63879;46.064;14.532;2023-05-07T19:51:05;4.47;;;2.03;;
75285;SDS011;63879;46.064;14.532;2023-05-07T19:53:31;2.53;;;1.93;;
75285;SDS011;63879;46.064;14.532;2023-05-07T19:56:03;2.63;;;2.42;;
75285;SDS011;63879;46.064;14.532;2023-05-07T19:58:30;2.40;;;1.85;;
75285;SDS011;63879;46.064;14.532;2023-05-07T20:00:56;2.80;;;2.03;;
75285;SDS011;63879;46.064;14.532;2023-05-07T20:03:22;3.30;;;1.80;;
75285;SDS011;63879;46.064;14.532;2023-05-07T20:05:47;2.15;;;1.23;;
75285;SDS011;63879;46.064;14.532;2023-05-07T20:08:14;2.10;;;1.88;;
75285;SDS011;63879;46.064;14.532;2023-05-07T20:10:39;3.58;;;1.77;;
75285;SDS011;63879;46.064;14.532;2023-05-07T20:13:05;2.25;;;2.03;;
75285;SDS011;63879;46.064;14.532;2023-05-07T20:15:30;2.10;;;1.70;;
75285;SDS011;63879;46.064;14.532;2023-05-07T20:17:55;1.58;;;1.48;;
75285;SDS011;63879;46.064;14.532;2023-05-07T20:20:21;2.00;;;1.70;;
75285;SDS011;63879;46.064;14.532;2023-05-07T20:22:46;2.10;;;1.77;;
75285;SDS011;63879;46.064;14.532;2023-05-07T20:25:12;4.15;;;2.38;;
75285;SDS011;63879;46.064;14.532;2023-05-07T20:27:39;2.15;;;1.85;;
75285;SDS011;63879;46.064;14.532;2023-05-07T20:30:08;2.10;;;1.73;;
75285;SDS011;63879;46.064;14.532;2023-05-07T20:32:33;2.20;;;1.75;;
75285;SDS011;63879;46.064;14.532;2023-05-07T20:34:59;2.22;;;1.85;;
75285;SDS011;63879;46.064;14.532;2023-05-07T20:37:24;2.35;;;1.70;;
75285;SDS011;63879;46.064;14.532;2023-05-07T20:39:50;2.53;;;2.33;;
75285;SDS011;63879;46.064;14.532;2023-05-07T20:42:16;2.60;;;2.28;;
75285;SDS011;63879;46.064;14.532;2023-05-07T20:44:42;2.95;;;1.77;;
75285;SDS011;63879;46.064;14.532;2023-05-07T20:47:08;3.25;;;1.25;;